sensor_id;sensor_type;location;lat;lon;timestamp;temperature;humidity
16968;DHT22;8600;54.338;10.128;2022-08-27T00:00:23;20.30;99.90
16968;DHT22;8600;54.338;10.128;2022-08-27T00:02:50;20.20;99.90
16968;DHT22;8600;54.338;10.128;2022-08-27T00:05:18;20.30;99.90
16968;DHT22;8600;54.338;10.128;2022-08-27T00:07:46;20.30;99.90
16968;DHT22;8600;54.338;10.128;2022-08-27T00:10:16;20.30;99.90
16968;DHT22;8600;54.338;10.128;2022-08-27T00:12:45;20.20;99.90
16968;DHT22;8600;54.338;10.128;2022-08-27T00:15:13;20.20;99.90
16968;DHT22;8600;54.338;10.128;2022-08-27T00:17:42;20.20;99.90
16968;DHT22;8600;54.338;10.128;2022-08-27T00:20:11;20.20;99.90
16968;DHT22;8600;54.338;10.128;2022-08-27T00:22:39;20.20;99.90
16968;DHT22;8600;54.338;10.128;2022-08-27T00:25:06;20.20;99.90
16968;DHT22;8600;54.338;10.128;2022-08-27T00:27:33;20.20;99.90
16968;DHT22;8600;54.338;10.128;2022-08-27T00:30:04;20.20;99.90
16968;DHT22;8600;54.338;10.128;2022-08-27T00:32:31;20.20;99.90
16968;DHT22;8600;54.338;10.128;2022-08-27T00:34:58;20.20;99.90
16968;DHT22;8600;54.338;10.128;2022-08-27T00:37:25;20.20;99.90
16968;DHT22;8600;54.338;10.128;2022-08-27T00:39:52;20.20;99.90
16968;DHT22;8600;54.338;10.128;2022-08-27T00:42:20;20.10;99.90
16968;DHT22;8600;54.338;10.128;2022-08-27T00:44:47;20.10;99.90
16968;DHT22;8600;54.338;10.128;2022-08-27T00:47:19;20.10;99.90
16968;DHT22;8600;54.338;10.128;2022-08-27T00:49:48;20.10;99.90
16968;DHT22;8600;54.338;10.128;2022-08-27T00:52:21;20.10;99.90
16968;DHT22;8600;54.338;10.128;2022-08-27T00:54:49;20.10;99.90
16968;DHT22;8600;54.338;10.128;2022-08-27T00:57:17;20.10;99.90
16968;DHT22;8600;54.338;10.128;2022-08-27T00:59:44;20.10;99.90
16968;DHT22;8600;54.338;10.128;2022-08-27T01:02:12;20.10;99.90
16968;DHT22;8600;54.338;10.128;2022-08-27T01:04:50;20.10;99.90
16968;DHT22;8600;54.338;10.128;2022-08-27T01:07:18;20.10;99.90
16968;DHT22;8600;54.338;10.128;2022-08-27T01:09:47;20.10;99.90
16968;DHT22;8600;54.338;10.128;2022-08-27T01:12:15;20.10;99.90
16968;DHT22;8600;54.338;10.128;2022-08-27T01:14:43;20.10;99.90
16968;DHT22;8600;54.338;10.128;2022-08-27T01:17:12;20.10;99.90
16968;DHT22;8600;54.338;10.128;2022-08-27T01:19:44;20.00;99.90
16968;DHT22;8600;54.338;10.128;2022-08-27T01:22:24;20.00;99.90
16968;DHT22;8600;54.338;10.128;2022-08-27T01:24:58;20.00;99.90
16968;DHT22;8600;54.338;10.128;2022-08-27T01:27:27;20.00;99.90
16968;DHT22;8600;54.338;10.128;2022-08-27T01:29:56;20.00;99.90
16968;DHT22;8600;54.338;10.128;2022-08-27T01:32:26;20.00;99.90
16968;DHT22;8600;54.338;10.128;2022-08-27T01:34:53;20.00;99.90
16968;DHT22;8600;54.338;10.128;2022-08-27T01:37:21;19.80;99.90
16968;DHT22;8600;54.338;10.128;2022-08-27T01:39:48;19.80;99.90
16968;DHT22;8600;54.338;10.128;2022-08-27T01:42:18;19.80;99.90
16968;DHT22;8600;54.338;10.128;2022-08-27T01:44:49;19.80;99.90
16968;DHT22;8600;54.338;10.128;2022-08-27T01:47:20;19.70;99.90
16968;DHT22;8600;54.338;10.128;2022-08-27T01:49:47;19.70;99.90
16968;DHT22;8600;54.338;10.128;2022-08-27T01:52:16;19.70;99.90
16968;DHT22;8600;54.338;10.128;2022-08-27T01:54:44;19.70;99.90
16968;DHT22;8600;54.338;10.128;2022-08-27T01:57:12;19.60;99.90
16968;DHT22;8600;54.338;10.128;2022-08-27T01:59:40;19.60;99.90
16968;DHT22;8600;54.338;10.128;2022-08-27T02:02:08;19.60;99.90
16968;DHT22;8600;54.338;10.128;2022-08-27T02:04:36;19.50;99.90
16968;DHT22;8600;54.338;10.128;2022-08-27T02:07:03;19.50;99.90
16968;DHT22;8600;54.338;10.128;2022-08-27T02:09:30;19.50;99.90
16968;DHT22;8600;54.338;10.128;2022-08-27T02:11:58;19.50;99.90
16968;DHT22;8600;54.338;10.128;2022-08-27T02:14:26;19.40;99.90
16968;DHT22;8600;54.338;10.128;2022-08-27T02:16:55;19.50;99.90
16968;DHT22;8600;54.338;10.128;2022-08-27T02:19:22;19.50;99.90
16968;DHT22;8600;54.338;10.128;2022-08-27T02:21:49;19.40;99.90
16968;DHT22;8600;54.338;10.128;2022-08-27T02:24:16;19.40;99.90
16968;DHT22;8600;54.338;10.128;2022-08-27T02:26:43;19.40;99.90
16968;DHT22;8600;54.338;10.128;2022-08-27T02:29:10;19.40;99.90
16968;DHT22;8600;54.338;10.128;2022-08-27T02:31:37;19.40;99.90
16968;DHT22;8600;54.338;10.128;2022-08-27T02:34:07;19.40;99.90
16968;DHT22;8600;54.338;10.128;2022-08-27T02:36:35;19.40;99.90
16968;DHT22;8600;54.338;10.128;2022-08-27T02:39:03;19.40;99.90
16968;DHT22;8600;54.338;10.128;2022-08-27T02:41:30;19.40;99.90
16968;DHT22;8600;54.338;10.128;2022-08-27T02:43:57;19.30;99.90
16968;DHT22;8600;54.338;10.128;2022-08-27T02:46:24;19.30;99.90
16968;DHT22;8600;54.338;10.128;2022-08-27T02:48:51;19.20;99.90
16968;DHT22;8600;54.338;10.128;2022-08-27T02:51:19;19.20;99.90
16968;DHT22;8600;54.338;10.128;2022-08-27T02:53:46;19.20;99.90
16968;DHT22;8600;54.338;10.128;2022-08-27T02:56:14;19.20;99.90
16968;DHT22;8600;54.338;10.128;2022-08-27T02:58:41;19.10;99.90
16968;DHT22;8600;54.338;10.128;2022-08-27T03:01:08;19.10;99.90
16968;DHT22;8600;54.338;10.128;2022-08-27T03:03:35;19.10;99.90
16968;DHT22;8600;54.338;10.128;2022-08-27T03:06:03;19.10;99.90
16968;DHT22;8600;54.338;10.128;2022-08-27T03:08:31;19.10;99.90
16968;DHT22;8600;54.338;10.128;2022-08-27T03:10:58;19.10;99.90
16968;DHT22;8600;54.338;10.128;2022-08-27T03:13:25;19.10;99.90
16968;DHT22;8600;54.338;10.128;2022-08-27T03:15:52;19.10;99.90
16968;DHT22;8600;54.338;10.128;2022-08-27T03:18:19;19.10;99.90
16968;DHT22;8600;54.338;10.128;2022-08-27T03:20:49;19.00;99.90
16968;DHT22;8600;54.338;10.128;2022-08-27T03:23:18;19.00;99.90
16968;DHT22;8600;54.338;10.128;2022-08-27T03:25:50;18.90;99.90
16968;DHT22;8600;54.338;10.128;2022-08-27T03:28:18;18.90;99.90
16968;DHT22;8600;54.338;10.128;2022-08-27T03:30:48;18.90;99.90
16968;DHT22;8600;54.338;10.128;2022-08-27T03:33:17;18.90;99.90
16968;DHT22;8600;54.338;10.128;2022-08-27T03:35:44;18.90;99.90
16968;DHT22;8600;54.338;10.128;2022-08-27T03:38:12;18.90;99.90
16968;DHT22;8600;54.338;10.128;2022-08-27T03:40:39;18.90;99.90
16968;DHT22;8600;54.338;10.128;2022-08-27T03:43:10;18.90;99.90
16968;DHT22;8600;54.338;10.128;2022-08-27T03:45:38;18.90;99.90
16968;DHT22;8600;54.338;10.128;2022-08-27T03:48:05;18.90;99.90
16968;DHT22;8600;54.338;10.128;2022-08-27T03:50:32;18.90;99.90
16968;DHT22;8600;54.338;10.128;2022-08-27T03:52:59;18.90;99.90
16968;DHT22;8600;54.338;10.128;2022-08-27T03:55:26;18.80;99.90
16968;DHT22;8600;54.338;10.128;2022-08-27T03:57:53;18.80;99.90
16968;DHT22;8600;54.338;10.128;2022-08-27T04:00:21;18.70;99.90
16968;DHT22;8600;54.338;10.128;2022-08-27T04:02:49;18.70;99.90
16968;DHT22;8600;54.338;10.128;2022-08-27T04:05:16;18.70;99.90
16968;DHT22;8600;54.338;10.128;2022-08-27T04:07:43;18.70;99.90
16968;DHT22;8600;54.338;10.128;2022-08-27T04:10:12;18.70;99.90
16968;DHT22;8600;54.338;10.128;2022-08-27T04:12:39;18.70;99.90
16968;DHT22;8600;54.338;10.128;2022-08-27T04:15:07;18.70;99.90
16968;DHT22;8600;54.338;10.128;2022-08-27T04:17:36;18.60;99.90
16968;DHT22;8600;54.338;10.128;2022-08-27T04:20:06;18.60;99.90
16968;DHT22;8600;54.338;10.128;2022-08-27T04:22:33;18.60;99.90
16968;DHT22;8600;54.338;10.128;2022-08-27T04:25:00;18.60;99.90
16968;DHT22;8600;54.338;10.128;2022-08-27T04:27:28;18.60;99.90
16968;DHT22;8600;54.338;10.128;2022-08-27T04:29:57;18.50;99.90
16968;DHT22;8600;54.338;10.128;2022-08-27T04:32:25;18.50;99.90
16968;DHT22;8600;54.338;10.128;2022-08-27T04:34:54;18.50;99.90
16968;DHT22;8600;54.338;10.128;2022-08-27T04:37:22;18.50;99.90
16968;DHT22;8600;54.338;10.128;2022-08-27T04:39:49;18.60;99.90
16968;DHT22;8600;54.338;10.128;2022-08-27T04:42:17;18.50;99.90
16968;DHT22;8600;54.338;10.128;2022-08-27T04:44:45;18.50;99.90
16968;DHT22;8600;54.338;10.128;2022-08-27T04:47:13;18.50;99.90
16968;DHT22;8600;54.338;10.128;2022-08-27T04:49:41;18.50;99.90
16968;DHT22;8600;54.338;10.128;2022-08-27T04:52:09;18.60;99.90
16968;DHT22;8600;54.338;10.128;2022-08-27T04:54:36;18.60;99.90
16968;DHT22;8600;54.338;10.128;2022-08-27T04:57:04;18.50;99.90
16968;DHT22;8600;54.338;10.128;2022-08-27T04:59:33;18.50;99.90
16968;DHT22;8600;54.338;10.128;2022-08-27T05:02:01;18.50;99.90
16968;DHT22;8600;54.338;10.128;2022-08-27T05:04:28;18.40;99.90
16968;DHT22;8600;54.338;10.128;2022-08-27T05:06:55;18.50;99.90
16968;DHT22;8600;54.338;10.128;2022-08-27T05:09:24;18.50;99.90
16968;DHT22;8600;54.338;10.128;2022-08-27T05:11:51;18.50;99.90
16968;DHT22;8600;54.338;10.128;2022-08-27T05:14:18;18.50;99.90
16968;DHT22;8600;54.338;10.128;2022-08-27T05:16:46;18.50;99.90
16968;DHT22;8600;54.338;10.128;2022-08-27T05:19:13;18.40;99.90
16968;DHT22;8600;54.338;10.128;2022-08-27T05:21:44;18.40;99.90
16968;DHT22;8600;54.338;10.128;2022-08-27T05:24:11;18.40;99.90
16968;DHT22;8600;54.338;10.128;2022-08-27T05:26:40;18.40;99.90
16968;DHT22;8600;54.338;10.128;2022-08-27T05:29:06;18.40;99.90
16968;DHT22;8600;54.338;10.128;2022-08-27T05:31:34;18.40;99.90
16968;DHT22;8600;54.338;10.128;2022-08-27T05:34:02;18.30;99.90
16968;DHT22;8600;54.338;10.128;2022-08-27T05:36:32;18.30;99.90
16968;DHT22;8600;54.338;10.128;2022-08-27T05:39:01;18.40;99.90
16968;DHT22;8600;54.338;10.128;2022-08-27T05:41:30;18.40;99.90
16968;DHT22;8600;54.338;10.128;2022-08-27T05:44:01;18.40;99.90
16968;DHT22;8600;54.338;10.128;2022-08-27T05:46:29;18.30;99.90
16968;DHT22;8600;54.338;10.128;2022-08-27T05:48:57;18.20;99.90
16968;DHT22;8600;54.338;10.128;2022-08-27T05:51:27;18.20;99.90
16968;DHT22;8600;54.338;10.128;2022-08-27T05:53:56;18.20;99.90
16968;DHT22;8600;54.338;10.128;2022-08-27T05:56:25;18.20;99.90
16968;DHT22;8600;54.338;10.128;2022-08-27T05:58:52;18.10;99.90
16968;DHT22;8600;54.338;10.128;2022-08-27T06:01:41;18.10;99.90
16968;DHT22;8600;54.338;10.128;2022-08-27T06:04:09;18.10;99.90
16968;DHT22;8600;54.338;10.128;2022-08-27T06:06:38;18.20;99.90
16968;DHT22;8600;54.338;10.128;2022-08-27T06:09:07;18.20;99.90
16968;DHT22;8600;54.338;10.128;2022-08-27T06:11:34;18.20;99.90
16968;DHT22;8600;54.338;10.128;2022-08-27T06:14:02;18.20;99.90
16968;DHT22;8600;54.338;10.128;2022-08-27T06:16:29;18.20;99.90
16968;DHT22;8600;54.338;10.128;2022-08-27T06:18:57;18.20;99.90
16968;DHT22;8600;54.338;10.128;2022-08-27T06:21:24;18.30;99.90
16968;DHT22;8600;54.338;10.128;2022-08-27T06:23:52;18.20;99.90
16968;DHT22;8600;54.338;10.128;2022-08-27T06:26:22;18.30;99.90
16968;DHT22;8600;54.338;10.128;2022-08-27T06:28:50;18.20;99.90
16968;DHT22;8600;54.338;10.128;2022-08-27T06:31:19;18.20;99.90
16968;DHT22;8600;54.338;10.128;2022-08-27T06:33:48;18.10;99.90
16968;DHT22;8600;54.338;10.128;2022-08-27T06:36:19;18.10;99.90
16968;DHT22;8600;54.338;10.128;2022-08-27T06:38:47;18.10;99.90
16968;DHT22;8600;54.338;10.128;2022-08-27T06:41:15;18.00;99.90
16968;DHT22;8600;54.338;10.128;2022-08-27T06:43:43;18.00;99.90
16968;DHT22;8600;54.338;10.128;2022-08-27T06:46:13;18.00;99.90
16968;DHT22;8600;54.338;10.128;2022-08-27T06:48:41;17.90;99.90
16968;DHT22;8600;54.338;10.128;2022-08-27T06:51:11;18.00;99.90
16968;DHT22;8600;54.338;10.128;2022-08-27T06:53:41;18.00;99.90
16968;DHT22;8600;54.338;10.128;2022-08-27T06:56:09;18.10;99.90
16968;DHT22;8600;54.338;10.128;2022-08-27T06:58:36;18.20;99.90
16968;DHT22;8600;54.338;10.128;2022-08-27T07:01:11;18.10;99.90
16968;DHT22;8600;54.338;10.128;2022-08-27T07:03:39;18.20;99.90
16968;DHT22;8600;54.338;10.128;2022-08-27T07:06:06;18.20;99.90
16968;DHT22;8600;54.338;10.128;2022-08-27T07:08:33;18.10;99.90
16968;DHT22;8600;54.338;10.128;2022-08-27T07:11:02;18.10;99.90
16968;DHT22;8600;54.338;10.128;2022-08-27T07:13:29;18.20;99.90
16968;DHT22;8600;54.338;10.128;2022-08-27T07:15:56;18.30;99.90
16968;DHT22;8600;54.338;10.128;2022-08-27T07:18:23;18.30;99.90
16968;DHT22;8600;54.338;10.128;2022-08-27T07:20:51;18.40;99.90
16968;DHT22;8600;54.338;10.128;2022-08-27T07:23:19;18.50;99.90
16968;DHT22;8600;54.338;10.128;2022-08-27T07:25:46;18.50;99.90
16968;DHT22;8600;54.338;10.128;2022-08-27T07:28:15;18.40;99.90
16968;DHT22;8600;54.338;10.128;2022-08-27T07:30:42;18.40;99.90
16968;DHT22;8600;54.338;10.128;2022-08-27T07:33:09;18.40;99.90
16968;DHT22;8600;54.338;10.128;2022-08-27T07:35:36;18.30;99.90
16968;DHT22;8600;54.338;10.128;2022-08-27T07:38:03;18.20;99.90
16968;DHT22;8600;54.338;10.128;2022-08-27T07:40:31;18.30;99.90
16968;DHT22;8600;54.338;10.128;2022-08-27T07:42:58;18.20;99.90
16968;DHT22;8600;54.338;10.128;2022-08-27T07:45:46;18.30;99.90
16968;DHT22;8600;54.338;10.128;2022-08-27T07:48:13;18.30;99.90
16968;DHT22;8600;54.338;10.128;2022-08-27T07:50:41;18.30;99.90
16968;DHT22;8600;54.338;10.128;2022-08-27T07:53:08;18.20;99.90
16968;DHT22;8600;54.338;10.128;2022-08-27T07:55:35;18.20;99.90
16968;DHT22;8600;54.338;10.128;2022-08-27T07:58:03;18.30;99.90
16968;DHT22;8600;54.338;10.128;2022-08-27T08:00:31;18.30;99.90
16968;DHT22;8600;54.338;10.128;2022-08-27T08:02:59;18.40;99.90
16968;DHT22;8600;54.338;10.128;2022-08-27T08:05:26;18.40;99.90
16968;DHT22;8600;54.338;10.128;2022-08-27T08:07:54;18.40;99.90
16968;DHT22;8600;54.338;10.128;2022-08-27T08:10:21;18.40;99.90
16968;DHT22;8600;54.338;10.128;2022-08-27T08:12:48;18.50;99.90
16968;DHT22;8600;54.338;10.128;2022-08-27T08:15:17;18.50;99.90
16968;DHT22;8600;54.338;10.128;2022-08-27T08:17:44;18.50;99.90
16968;DHT22;8600;54.338;10.128;2022-08-27T08:20:13;18.60;99.90
16968;DHT22;8600;54.338;10.128;2022-08-27T08:22:41;18.60;99.90
16968;DHT22;8600;54.338;10.128;2022-08-27T08:25:09;18.50;99.90
16968;DHT22;8600;54.338;10.128;2022-08-27T08:27:39;18.60;99.90
16968;DHT22;8600;54.338;10.128;2022-08-27T08:30:07;18.70;99.90
16968;DHT22;8600;54.338;10.128;2022-08-27T08:32:34;18.70;99.90
16968;DHT22;8600;54.338;10.128;2022-08-27T08:35:02;18.80;99.90
16968;DHT22;8600;54.338;10.128;2022-08-27T08:37:30;18.90;99.90
16968;DHT22;8600;54.338;10.128;2022-08-27T08:39:57;19.10;99.90
16968;DHT22;8600;54.338;10.128;2022-08-27T08:42:29;19.10;99.90
16968;DHT22;8600;54.338;10.128;2022-08-27T08:45:03;19.20;99.90
16968;DHT22;8600;54.338;10.128;2022-08-27T08:47:35;19.10;99.90
16968;DHT22;8600;54.338;10.128;2022-08-27T08:50:11;19.00;99.90
16968;DHT22;8600;54.338;10.128;2022-08-27T08:52:45;19.10;99.90
16968;DHT22;8600;54.338;10.128;2022-08-27T08:55:28;19.30;99.90
16968;DHT22;8600;54.338;10.128;2022-08-27T08:58:06;19.40;99.90
16968;DHT22;8600;54.338;10.128;2022-08-27T09:00:36;19.20;99.90
16968;DHT22;8600;54.338;10.128;2022-08-27T09:03:05;19.20;99.90
16968;DHT22;8600;54.338;10.128;2022-08-27T09:05:33;19.30;99.90
16968;DHT22;8600;54.338;10.128;2022-08-27T09:08:08;19.20;99.90
16968;DHT22;8600;54.338;10.128;2022-08-27T09:10:43;19.30;99.90
16968;DHT22;8600;54.338;10.128;2022-08-27T09:13:19;19.20;99.90
16968;DHT22;8600;54.338;10.128;2022-08-27T09:15:47;19.30;99.90
16968;DHT22;8600;54.338;10.128;2022-08-27T09:18:15;19.40;99.90
16968;DHT22;8600;54.338;10.128;2022-08-27T09:20:45;19.40;99.90
16968;DHT22;8600;54.338;10.128;2022-08-27T09:23:21;19.50;99.90
16968;DHT22;8600;54.338;10.128;2022-08-27T09:25:50;19.40;99.90
16968;DHT22;8600;54.338;10.128;2022-08-27T09:28:28;19.40;99.90
16968;DHT22;8600;54.338;10.128;2022-08-27T09:31:17;19.60;99.90
16968;DHT22;8600;54.338;10.128;2022-08-27T09:33:45;19.60;99.90
16968;DHT22;8600;54.338;10.128;2022-08-27T09:36:14;19.60;99.90
16968;DHT22;8600;54.338;10.128;2022-08-27T09:38:51;19.60;99.90
16968;DHT22;8600;54.338;10.128;2022-08-27T09:41:26;19.50;99.90
16968;DHT22;8600;54.338;10.128;2022-08-27T09:43:58;19.40;99.90
16968;DHT22;8600;54.338;10.128;2022-08-27T09:46:25;19.50;99.90
16968;DHT22;8600;54.338;10.128;2022-08-27T09:48:53;19.60;99.90
16968;DHT22;8600;54.338;10.128;2022-08-27T09:51:24;19.70;99.90
16968;DHT22;8600;54.338;10.128;2022-08-27T09:53:56;19.70;99.90
16968;DHT22;8600;54.338;10.128;2022-08-27T09:56:28;19.70;99.90
16968;DHT22;8600;54.338;10.128;2022-08-27T09:59:00;19.70;99.90
16968;DHT22;8600;54.338;10.128;2022-08-27T10:01:30;19.90;99.90
16968;DHT22;8600;54.338;10.128;2022-08-27T10:04:06;19.90;99.90
16968;DHT22;8600;54.338;10.128;2022-08-27T10:06:33;19.90;99.90
16968;DHT22;8600;54.338;10.128;2022-08-27T10:09:07;20.00;99.90
16968;DHT22;8600;54.338;10.128;2022-08-27T10:11:39;19.80;99.90
16968;DHT22;8600;54.338;10.128;2022-08-27T10:14:12;19.80;99.90
16968;DHT22;8600;54.338;10.128;2022-08-27T10:16:48;20.10;99.90
16968;DHT22;8600;54.338;10.128;2022-08-27T10:19:34;19.80;99.90
16968;DHT22;8600;54.338;10.128;2022-08-27T10:22:09;19.80;99.90
16968;DHT22;8600;54.338;10.128;2022-08-27T10:24:45;19.90;99.90
16968;DHT22;8600;54.338;10.128;2022-08-27T10:27:22;19.80;99.90
16968;DHT22;8600;54.338;10.128;2022-08-27T10:29:57;19.80;99.90
16968;DHT22;8600;54.338;10.128;2022-08-27T10:32:38;20.00;99.90
16968;DHT22;8600;54.338;10.128;2022-08-27T10:35:12;20.20;99.90
16968;DHT22;8600;54.338;10.128;2022-08-27T10:37:46;20.10;99.90
16968;DHT22;8600;54.338;10.128;2022-08-27T10:40:21;20.00;99.90
16968;DHT22;8600;54.338;10.128;2022-08-27T10:42:57;19.90;99.90
16968;DHT22;8600;54.338;10.128;2022-08-27T10:45:36;19.70;99.90
16968;DHT22;8600;54.338;10.128;2022-08-27T10:48:20;19.90;99.90
16968;DHT22;8600;54.338;10.128;2022-08-27T10:50:54;20.10;99.90
16968;DHT22;8600;54.338;10.128;2022-08-27T10:53:29;20.10;99.90
16968;DHT22;8600;54.338;10.128;2022-08-27T10:56:08;20.10;99.90
16968;DHT22;8600;54.338;10.128;2022-08-27T10:58:44;20.10;99.90
16968;DHT22;8600;54.338;10.128;2022-08-27T11:01:19;20.00;99.90
16968;DHT22;8600;54.338;10.128;2022-08-27T11:03:51;19.90;99.90
16968;DHT22;8600;54.338;10.128;2022-08-27T11:06:24;19.90;99.90
16968;DHT22;8600;54.338;10.128;2022-08-27T11:08:56;20.00;99.90
16968;DHT22;8600;54.338;10.128;2022-08-27T11:11:32;20.00;99.90
16968;DHT22;8600;54.338;10.128;2022-08-27T11:14:01;20.10;99.90
16968;DHT22;8600;54.338;10.128;2022-08-27T11:16:34;20.20;99.90
16968;DHT22;8600;54.338;10.128;2022-08-27T11:19:07;20.30;99.90
16968;DHT22;8600;54.338;10.128;2022-08-27T11:21:42;20.30;99.90
16968;DHT22;8600;54.338;10.128;2022-08-27T11:24:18;20.40;99.90
16968;DHT22;8600;54.338;10.128;2022-08-27T11:26:53;20.70;99.90
16968;DHT22;8600;54.338;10.128;2022-08-27T11:29:29;20.90;99.90
16968;DHT22;8600;54.338;10.128;2022-08-27T11:32:04;20.40;99.90
16968;DHT22;8600;54.338;10.128;2022-08-27T11:34:41;20.50;99.90
16968;DHT22;8600;54.338;10.128;2022-08-27T11:37:21;20.40;99.90
16968;DHT22;8600;54.338;10.128;2022-08-27T11:40:15;20.70;99.90
16968;DHT22;8600;54.338;10.128;2022-08-27T11:42:52;21.00;99.90
16968;DHT22;8600;54.338;10.128;2022-08-27T11:45:23;21.10;99.90
16968;DHT22;8600;54.338;10.128;2022-08-27T11:47:57;21.20;99.90
16968;DHT22;8600;54.338;10.128;2022-08-27T11:50:25;21.30;99.90
16968;DHT22;8600;54.338;10.128;2022-08-27T11:52:56;21.40;99.90
16968;DHT22;8600;54.338;10.128;2022-08-27T11:55:28;21.40;99.90
16968;DHT22;8600;54.338;10.128;2022-08-27T11:58:06;21.50;99.90
16968;DHT22;8600;54.338;10.128;2022-08-27T12:00:36;21.50;99.90
16968;DHT22;8600;54.338;10.128;2022-08-27T12:03:05;21.70;99.90
16968;DHT22;8600;54.338;10.128;2022-08-27T12:05:39;21.90;99.90
16968;DHT22;8600;54.338;10.128;2022-08-27T12:08:15;21.90;99.90
16968;DHT22;8600;54.338;10.128;2022-08-27T12:10:54;21.70;99.90
16968;DHT22;8600;54.338;10.128;2022-08-27T12:13:31;21.70;99.90
16968;DHT22;8600;54.338;10.128;2022-08-27T12:16:09;21.90;99.90
16968;DHT22;8600;54.338;10.128;2022-08-27T12:18:48;22.10;99.90
16968;DHT22;8600;54.338;10.128;2022-08-27T12:21:29;22.20;99.90
16968;DHT22;8600;54.338;10.128;2022-08-27T12:24:10;22.10;99.90
16968;DHT22;8600;54.338;10.128;2022-08-27T12:26:40;22.10;99.90
16968;DHT22;8600;54.338;10.128;2022-08-27T12:29:23;22.20;99.90
16968;DHT22;8600;54.338;10.128;2022-08-27T12:32:00;22.50;99.90
16968;DHT22;8600;54.338;10.128;2022-08-27T12:34:32;22.30;99.90
16968;DHT22;8600;54.338;10.128;2022-08-27T12:37:06;22.40;99.90
16968;DHT22;8600;54.338;10.128;2022-08-27T12:39:36;22.40;99.90
16968;DHT22;8600;54.338;10.128;2022-08-27T12:42:11;22.60;99.90
16968;DHT22;8600;54.338;10.128;2022-08-27T12:44:39;22.80;99.90
16968;DHT22;8600;54.338;10.128;2022-08-27T12:47:09;22.90;99.90
16968;DHT22;8600;54.338;10.128;2022-08-27T12:49:44;22.90;99.90
16968;DHT22;8600;54.338;10.128;2022-08-27T12:52:18;22.70;99.90
16968;DHT22;8600;54.338;10.128;2022-08-27T12:54:57;22.80;99.90
16968;DHT22;8600;54.338;10.128;2022-08-27T12:57:33;22.90;99.90
16968;DHT22;8600;54.338;10.128;2022-08-27T13:00:06;22.90;99.90
16968;DHT22;8600;54.338;10.128;2022-08-27T13:02:53;22.90;99.90
16968;DHT22;8600;54.338;10.128;2022-08-27T13:05:22;22.90;99.90
16968;DHT22;8600;54.338;10.128;2022-08-27T13:07:51;22.80;99.90
16968;DHT22;8600;54.338;10.128;2022-08-27T13:10:20;22.90;99.90
16968;DHT22;8600;54.338;10.128;2022-08-27T13:13:01;22.90;99.90
16968;DHT22;8600;54.338;10.128;2022-08-27T13:15:30;23.00;99.90
16968;DHT22;8600;54.338;10.128;2022-08-27T13:17:58;23.10;99.90
16968;DHT22;8600;54.338;10.128;2022-08-27T13:20:26;23.20;99.90
16968;DHT22;8600;54.338;10.128;2022-08-27T13:22:53;23.30;99.90
16968;DHT22;8600;54.338;10.128;2022-08-27T13:25:23;23.30;99.90
16968;DHT22;8600;54.338;10.128;2022-08-27T13:27:52;23.40;99.90
16968;DHT22;8600;54.338;10.128;2022-08-27T13:30:20;23.30;99.90
16968;DHT22;8600;54.338;10.128;2022-08-27T13:32:49;23.40;99.90
16968;DHT22;8600;54.338;10.128;2022-08-27T13:35:18;23.40;99.90
16968;DHT22;8600;54.338;10.128;2022-08-27T13:37:49;23.30;99.90
16968;DHT22;8600;54.338;10.128;2022-08-27T13:40:26;23.30;99.90
16968;DHT22;8600;54.338;10.128;2022-08-27T13:43:01;23.20;99.90
16968;DHT22;8600;54.338;10.128;2022-08-27T13:45:28;23.00;99.90
16968;DHT22;8600;54.338;10.128;2022-08-27T13:47:59;23.00;99.90
16968;DHT22;8600;54.338;10.128;2022-08-27T13:50:28;23.00;99.90
16968;DHT22;8600;54.338;10.128;2022-08-27T13:53:03;22.90;99.90
16968;DHT22;8600;54.338;10.128;2022-08-27T13:55:49;23.00;99.90
16968;DHT22;8600;54.338;10.128;2022-08-27T13:58:19;23.10;99.90
16968;DHT22;8600;54.338;10.128;2022-08-27T14:00:49;23.20;99.90
16968;DHT22;8600;54.338;10.128;2022-08-27T14:03:32;23.20;99.90
16968;DHT22;8600;54.338;10.128;2022-08-27T14:05:59;23.30;99.90
16968;DHT22;8600;54.338;10.128;2022-08-27T14:08:29;23.40;99.90
16968;DHT22;8600;54.338;10.128;2022-08-27T14:11:00;23.60;99.90
16968;DHT22;8600;54.338;10.128;2022-08-27T14:13:29;23.50;99.90
16968;DHT22;8600;54.338;10.128;2022-08-27T14:16:13;23.50;99.90
16968;DHT22;8600;54.338;10.128;2022-08-27T14:18:51;23.60;99.90
16968;DHT22;8600;54.338;10.128;2022-08-27T14:21:19;23.50;99.90
16968;DHT22;8600;54.338;10.128;2022-08-27T14:23:46;23.60;99.90
16968;DHT22;8600;54.338;10.128;2022-08-27T14:26:13;23.50;99.90
16968;DHT22;8600;54.338;10.128;2022-08-27T14:28:42;23.30;99.90
16968;DHT22;8600;54.338;10.128;2022-08-27T14:31:09;23.20;99.90
16968;DHT22;8600;54.338;10.128;2022-08-27T14:33:36;23.40;99.90
16968;DHT22;8600;54.338;10.128;2022-08-27T14:36:06;23.50;99.90
16968;DHT22;8600;54.338;10.128;2022-08-27T14:38:36;23.40;99.90
16968;DHT22;8600;54.338;10.128;2022-08-27T14:41:03;23.20;99.90
16968;DHT22;8600;54.338;10.128;2022-08-27T14:43:30;23.30;99.90
16968;DHT22;8600;54.338;10.128;2022-08-27T14:45:59;23.30;99.90
16968;DHT22;8600;54.338;10.128;2022-08-27T14:48:29;23.40;99.90
16968;DHT22;8600;54.338;10.128;2022-08-27T14:50:59;23.20;99.90
16968;DHT22;8600;54.338;10.128;2022-08-27T14:53:28;23.10;99.90
16968;DHT22;8600;54.338;10.128;2022-08-27T14:55:55;23.10;99.90
16968;DHT22;8600;54.338;10.128;2022-08-27T14:58:23;23.20;99.90
16968;DHT22;8600;54.338;10.128;2022-08-27T15:00:50;23.30;99.90
16968;DHT22;8600;54.338;10.128;2022-08-27T15:03:19;23.40;99.90
16968;DHT22;8600;54.338;10.128;2022-08-27T15:05:50;23.40;99.90
16968;DHT22;8600;54.338;10.128;2022-08-27T15:08:19;23.30;99.90
16968;DHT22;8600;54.338;10.128;2022-08-27T15:10:48;23.20;99.90
16968;DHT22;8600;54.338;10.128;2022-08-27T15:13:15;23.30;99.90
16968;DHT22;8600;54.338;10.128;2022-08-27T15:15:42;23.60;99.90
16968;DHT22;8600;54.338;10.128;2022-08-27T15:18:10;23.50;99.90
16968;DHT22;8600;54.338;10.128;2022-08-27T15:20:38;23.60;99.90
16968;DHT22;8600;54.338;10.128;2022-08-27T15:23:05;23.60;99.90
16968;DHT22;8600;54.338;10.128;2022-08-27T15:25:32;23.50;99.90
16968;DHT22;8600;54.338;10.128;2022-08-27T15:28:01;23.50;99.90
16968;DHT22;8600;54.338;10.128;2022-08-27T15:30:28;23.50;99.90
16968;DHT22;8600;54.338;10.128;2022-08-27T15:32:55;23.40;99.90
16968;DHT22;8600;54.338;10.128;2022-08-27T15:35:25;23.30;99.90
16968;DHT22;8600;54.338;10.128;2022-08-27T15:37:52;23.10;99.90
16968;DHT22;8600;54.338;10.128;2022-08-27T15:40:20;23.10;99.90
16968;DHT22;8600;54.338;10.128;2022-08-27T15:42:52;23.30;99.90
16968;DHT22;8600;54.338;10.128;2022-08-27T15:45:21;23.40;99.90
16968;DHT22;8600;54.338;10.128;2022-08-27T15:47:48;23.50;99.90